createdAt,value
2019-01-23T00:00:30.811Z,23.93
2019-01-23T00:03:01.506Z,25.90
2019-01-23T00:05:32.278Z,25.57
2019-01-23T00:08:03.076Z,28.23
2019-01-23T00:10:34.186Z,28.90
2019-01-23T00:13:04.968Z,24.87
2019-01-23T00:15:35.706Z,29.50
2019-01-23T00:18:06.510Z,26.27
2019-01-23T00:20:37.195Z,26.70
2019-01-23T00:23:07.926Z,25.37
2019-01-23T00:25:39.658Z,27.60
2019-01-23T00:28:10.364Z,27.00
2019-01-23T00:30:41.115Z,24.73
2019-01-23T00:33:11.794Z,25.17
2019-01-23T00:35:42.565Z,26.07
2019-01-23T00:38:13.246Z,24.50
2019-01-23T00:40:43.981Z,26.77
2019-01-23T00:43:14.719Z,25.57
2019-01-23T00:45:47.012Z,27.30
2019-01-23T00:48:17.808Z,26.60
2019-01-23T00:50:48.582Z,26.80
2019-01-23T00:53:19.242Z,25.70
2019-01-23T00:55:49.973Z,22.07
2019-01-23T00:58:20.708Z,18.60
2019-01-23T01:00:51.550Z,24.60
2019-01-23T01:03:22.222Z,26.40
2019-01-23T01:05:52.958Z,22.93
2019-01-23T01:08:23.896Z,22.60
2019-01-23T01:10:54.758Z,22.30
2019-01-23T01:13:25.486Z,25.93
2019-01-23T01:15:56.355Z,26.53
2019-01-23T01:18:27.058Z,26.63
2019-01-23T01:20:57.825Z,20.90
2019-01-23T01:23:28.628Z,24.67
2019-01-23T01:25:59.451Z,26.40
2019-01-23T01:28:30.203Z,27.17
2019-01-23T01:31:01.009Z,27.37
2019-01-23T01:33:34.007Z,26.17
2019-01-23T01:36:04.397Z,24.40
2019-01-23T01:38:35.141Z,24.30
2019-01-23T01:41:06.019Z,23.83
2019-01-23T01:43:36.746Z,22.60
2019-01-23T01:46:07.504Z,14.90
2019-01-23T01:48:38.451Z,21.57
2019-01-23T01:51:09.200Z,22.77
2019-01-23T02:09:27.404Z,19.70
2019-01-23T02:11:59.906Z,17.63
2019-01-23T02:15:28.871Z,18.47
2019-01-23T02:19:04.259Z,17.47
2019-01-23T02:21:35.194Z,19.47
2019-01-23T02:24:35.878Z,18.80
2019-01-23T02:27:16.125Z,17.97
2019-01-23T02:30:05.209Z,20.63
2019-01-23T02:32:51.206Z,18.83
2019-01-23T02:35:23.545Z,19.13
2019-01-23T02:37:54.968Z,19.97
2019-01-23T02:41:15.064Z,19.70
2019-01-23T02:43:52.581Z,18.77
2019-01-23T02:46:38.847Z,19.97
2019-01-23T02:49:09.739Z,16.97
2019-01-23T02:51:40.772Z,18.57
2019-01-23T02:55:15.456Z,18.47
2019-01-23T02:57:57.184Z,19.30
2019-01-23T03:00:31.792Z,18.07
2019-01-23T03:03:08.672Z,20.17
2019-01-23T03:05:44.466Z,20.43
2019-01-23T03:08:52.375Z,21.00
2019-01-23T03:11:23.300Z,21.47
2019-01-23T03:14:25.377Z,19.13
2019-01-23T03:18:04.463Z,19.73
2019-01-23T03:20:44.266Z,21.43
2019-01-23T03:26:27.877Z,22.20
2019-01-23T03:29:43.572Z,21.90
2019-01-23T03:37:07.715Z,21.30
2019-01-23T03:40:36.168Z,23.10
2019-01-23T03:43:16.537Z,25.07
2019-01-23T03:46:35.375Z,25.00
2019-01-23T03:49:04.569Z,24.40
2019-01-23T03:51:35.434Z,27.13
2019-01-23T03:54:06.420Z,26.80
2019-01-23T03:56:37.191Z,28.40
2019-01-23T03:59:08.987Z,27.87
2019-01-23T04:01:40.873Z,27.73
2019-01-23T04:04:22.566Z,28.50
2019-01-23T04:06:55.311Z,27.83
2019-01-23T04:13:48.272Z,28.27
2019-01-23T04:20:17.246Z,27.20
2019-01-23T04:22:53.113Z,28.10
2019-01-23T04:32:57.272Z,29.10
2019-01-23T04:35:53.303Z,30.80
2019-01-23T04:38:21.046Z,30.20
2019-01-23T04:40:52.043Z,31.10
2019-01-23T04:43:23.227Z,29.60
2019-01-23T04:45:54.095Z,28.70
2019-01-23T04:48:25.027Z,30.77
2019-01-23T04:51:26.945Z,29.37
2019-01-23T04:53:57.994Z,31.33
2019-01-23T04:56:28.864Z,30.50
2019-01-23T04:58:59.655Z,30.07
2019-01-23T05:01:30.519Z,30.87
2019-01-23T05:04:01.324Z,29.53
2019-01-23T05:06:32.224Z,27.97
2019-01-23T05:09:03.835Z,31.63
2019-01-23T05:11:34.898Z,29.70
2019-01-23T05:14:06.818Z,29.70
2019-01-23T05:16:42.033Z,31.37
2019-01-23T05:23:19.741Z,28.97
2019-01-23T05:26:18.801Z,28.50
2019-01-23T05:28:53.027Z,29.53
2019-01-23T05:31:34.323Z,29.97
2019-01-23T05:54:08.232Z,30.80
2019-01-23T05:56:39.049Z,29.57
2019-01-23T05:59:09.826Z,30.77
2019-01-23T06:01:44.145Z,31.60
2019-01-23T06:04:15.091Z,30.70
2019-01-23T06:06:50.674Z,32.20
2019-01-23T06:09:23.458Z,31.37
2019-01-23T06:11:56.866Z,31.00
2019-01-23T06:14:27.779Z,32.23
2019-01-23T06:17:27.915Z,32.27
2019-01-23T06:19:58.863Z,33.00
2019-01-23T06:22:32.459Z,34.80
2019-01-23T06:25:07.347Z,32.47
2019-01-23T06:27:39.817Z,34.03
2019-01-23T06:30:14.820Z,33.00
2019-01-23T06:32:45.748Z,34.43
2019-01-23T06:51:42.546Z,30.60
2019-01-23T06:54:24.542Z,30.90
2019-01-23T06:56:55.820Z,32.47
2019-01-23T06:59:26.898Z,33.33
2019-01-23T07:02:23.841Z,35.20
2019-01-23T07:05:06.957Z,32.53
2019-01-23T07:07:42.261Z,34.07
2019-01-23T07:10:20.271Z,33.70
2019-01-23T07:12:51.107Z,34.80
2019-01-23T07:15:23.553Z,34.33
2019-01-23T07:17:54.624Z,33.63
2019-01-23T07:20:27.283Z,35.13
2019-01-23T07:22:58.343Z,35.93
2019-01-23T07:30:11.310Z,31.60
2019-01-23T07:32:48.539Z,32.73
2019-01-23T07:35:20.187Z,34.13
2019-01-23T07:38:12.217Z,33.13
2019-01-23T07:40:43.109Z,32.97
2019-01-23T07:43:14.035Z,35.60
2019-01-23T07:45:44.985Z,34.37
2019-01-23T07:48:17.087Z,34.63
2019-01-23T07:54:49.147Z,32.90
2019-01-23T07:57:20.632Z,33.83
2019-01-23T07:59:52.670Z,36.63
2019-01-23T08:02:27.890Z,33.87
2019-01-23T08:04:58.828Z,32.47
2019-01-23T08:07:29.790Z,33.03
2019-01-23T08:10:00.734Z,33.27
2019-01-23T08:12:31.789Z,35.40
2019-01-23T08:15:02.862Z,33.37
2019-01-23T08:21:21.158Z,33.43
2019-01-23T08:23:51.954Z,33.53
2019-01-23T08:26:22.797Z,37.27
2019-01-23T08:28:53.593Z,34.77
2019-01-23T08:31:24.420Z,33.70
2019-01-23T08:33:55.298Z,35.03
2019-01-23T08:36:26.115Z,34.90
2019-01-23T08:38:59.415Z,32.83
2019-01-23T08:41:30.177Z,32.23
2019-01-23T08:45:15.679Z,34.07
2019-01-23T08:52:17.413Z,32.93
2019-01-23T08:56:03.705Z,33.23
2019-01-23T09:06:24.854Z,30.43
2019-01-23T09:09:54.035Z,33.00
2019-01-23T09:12:25.406Z,28.77
2019-01-23T09:14:56.228Z,32.27
2019-01-23T09:17:26.951Z,32.33
2019-01-23T09:19:57.667Z,34.70
2019-01-23T09:22:28.465Z,35.93
2019-01-23T09:29:12.055Z,33.93
2019-01-23T09:32:04.456Z,34.00
2019-01-23T09:35:04.114Z,33.20
2019-01-23T09:38:59.560Z,33.10
2019-01-23T09:55:51.570Z,29.43
2019-01-23T09:58:23.047Z,26.77
2019-01-23T10:01:33.029Z,27.20
2019-01-23T10:04:48.438Z,27.87
2019-01-23T10:07:20.166Z,26.20
2019-01-23T10:10:45.879Z,27.20
2019-01-23T10:13:16.667Z,26.70
2019-01-23T10:16:10.846Z,24.97
2019-01-23T10:18:41.662Z,23.63
2019-01-23T10:21:57.627Z,25.17
2019-01-23T10:26:13.297Z,25.33
2019-01-23T10:30:27.620Z,23.77
2019-01-23T10:33:00.910Z,24.03
2019-01-23T10:35:33.240Z,22.57
2019-01-23T10:38:04.109Z,24.63
2019-01-23T10:40:35.152Z,24.00
2019-01-23T10:43:05.889Z,20.20
2019-01-23T10:45:36.934Z,24.03
2019-01-23T10:48:07.725Z,23.90
2019-01-23T10:50:38.677Z,23.73
2019-01-23T10:53:09.486Z,23.83
2019-01-23T10:55:44.343Z,24.03
2019-01-23T10:58:15.214Z,22.50
2019-01-23T11:00:46.029Z,23.33
2019-01-23T11:03:23.463Z,24.10
2019-01-23T11:05:54.273Z,25.27
2019-01-23T11:12:16.933Z,21.50
2019-01-23T11:14:48.134Z,22.37
2019-01-23T11:17:50.432Z,20.37
2019-01-23T11:22:01.850Z,21.30
2019-01-23T11:25:13.253Z,23.67
2019-01-23T11:28:30.007Z,22.73
2019-01-23T11:37:57.577Z,23.27
2019-01-23T11:41:31.771Z,24.37
2019-01-23T11:44:07.797Z,25.17
2019-01-23T11:52:28.209Z,25.23
2019-01-23T11:54:35.952Z,26.27
2019-01-23T11:57:20.475Z,24.27
2019-01-23T12:00:00.103Z,21.67
2019-01-23T12:07:07.037Z,26.30
2019-01-23T12:09:48.226Z,26.00
2019-01-23T12:12:18.971Z,26.77
2019-01-23T12:14:54.639Z,24.93
2019-01-23T12:17:28.291Z,24.23
2019-01-23T12:20:00.823Z,27.97
2019-01-23T12:23:05.679Z,28.57
2019-01-23T12:25:34.619Z,29.80
2019-01-23T12:28:05.513Z,18.10
2019-01-23T12:35:43.411Z,26.40
2019-01-23T12:38:18.704Z,26.53
2019-01-23T12:40:49.567Z,28.87
2019-01-23T12:43:20.379Z,29.23
2019-01-23T12:47:35.179Z,29.00
2019-01-23T13:08:43.033Z,22.87
2019-01-23T13:12:40.537Z,25.63
2019-01-23T13:15:23.236Z,19.50
2019-01-23T13:17:59.423Z,24.20
2019-01-23T13:20:30.274Z,22.83
2019-01-23T13:23:51.158Z,24.90
2019-01-23T13:26:44.613Z,22.50
2019-01-23T13:34:46.762Z,23.57
2019-01-23T13:37:22.548Z,23.87
2019-01-23T13:39:55.109Z,23.63
2019-01-23T13:42:30.324Z,24.43
2019-01-23T13:45:06.998Z,22.33
2019-01-23T13:47:37.973Z,25.10
2019-01-23T13:50:09.863Z,24.73
2019-01-23T13:53:04.563Z,24.40
2019-01-23T13:55:38.702Z,23.37
2019-01-23T13:58:14.118Z,24.73
2019-01-23T14:00:54.638Z,23.77
2019-01-23T14:03:51.363Z,20.80
2019-01-23T14:06:18.484Z,23.03
2019-01-23T14:08:57.892Z,22.77
2019-01-23T14:11:37.948Z,25.97
2019-01-23T14:14:10.636Z,25.87
2019-01-23T14:16:49.457Z,24.63
2019-01-23T14:19:30.447Z,25.83
2019-01-23T14:22:02.533Z,26.97
2019-01-23T14:24:41.725Z,25.57
2019-01-23T14:27:14.423Z,26.07
2019-01-23T14:35:58.839Z,26.07
2019-01-23T14:38:38.818Z,24.40
2019-01-23T14:41:09.779Z,24.13
2019-01-23T14:43:40.615Z,22.60
2019-01-23T14:46:11.382Z,22.53
2019-01-23T14:48:42.590Z,22.70
2019-01-23T14:51:13.554Z,21.03
2019-01-23T14:53:44.353Z,21.93
2019-01-23T14:56:15.362Z,20.53
2019-01-23T14:58:46.321Z,20.53
2019-01-23T15:01:17.081Z,19.90
2019-01-23T15:03:47.901Z,20.43
2019-01-23T15:06:18.617Z,21.50
2019-01-23T15:08:49.348Z,20.63
2019-01-23T15:11:20.084Z,19.60
2019-01-23T15:13:50.877Z,20.83
2019-01-23T15:16:21.709Z,20.63
2019-01-23T15:18:52.498Z,20.07
2019-01-23T15:21:23.319Z,20.30
2019-01-23T15:23:54.123Z,21.20
2019-01-23T15:26:24.802Z,22.03
2019-01-23T15:28:55.561Z,22.27
2019-01-23T15:31:26.312Z,22.37
2019-01-23T15:33:57.063Z,20.07
2019-01-23T15:36:27.862Z,23.17
2019-01-23T15:38:58.631Z,21.47
2019-01-23T15:41:29.429Z,20.40
2019-01-23T15:44:00.179Z,21.90
2019-01-23T15:46:31.014Z,20.97
2019-01-23T15:49:01.862Z,21.87
2019-01-23T15:51:32.645Z,22.47
2019-01-23T15:54:03.471Z,23.40
2019-01-23T15:56:34.251Z,21.37
2019-01-23T15:59:05.117Z,23.07
2019-01-23T16:01:35.940Z,23.97
2019-01-23T16:04:08.432Z,22.20
2019-01-23T16:06:39.684Z,22.80
2019-01-23T16:09:10.491Z,22.23
2019-01-23T16:11:45.923Z,23.20
2019-01-23T16:14:20.550Z,21.30
2019-01-23T16:16:54.065Z,22.57
2019-01-23T16:19:25.330Z,24.20
2019-01-23T16:21:58.613Z,24.17
2019-01-23T16:24:32.475Z,23.93
2019-01-23T16:27:03.701Z,24.23
2019-01-23T16:29:35.530Z,24.97
2019-01-23T16:32:08.118Z,24.53
2019-01-23T16:34:41.503Z,23.23
2019-01-23T16:37:15.366Z,25.27
2019-01-23T16:39:46.227Z,25.10
2019-01-23T16:42:18.226Z,24.47
2019-01-23T16:44:51.153Z,26.23
2019-01-23T16:47:22.143Z,25.07
2019-01-23T16:49:53.173Z,24.17
2019-01-23T16:52:24.074Z,26.03
2019-01-23T16:54:55.101Z,26.03
2019-01-23T16:57:26.073Z,24.13
2019-01-23T16:59:56.808Z,25.43
2019-01-23T17:02:27.562Z,25.00
2019-01-23T17:04:58.338Z,27.90
2019-01-23T17:07:29.165Z,24.20
2019-01-23T17:09:59.971Z,25.20
2019-01-23T17:12:30.621Z,25.63
2019-01-23T17:15:01.406Z,26.70
2019-01-23T17:17:32.081Z,27.17
2019-01-23T17:20:03.870Z,27.47
2019-01-23T17:22:36.278Z,26.23
2019-01-23T17:25:08.673Z,28.27
2019-01-23T17:27:39.553Z,27.73
2019-01-23T17:30:11.063Z,28.60
2019-01-23T17:32:45.664Z,29.70
2019-01-23T17:35:15.436Z,30.40
2019-01-23T17:37:46.190Z,29.53
2019-01-23T17:40:18.658Z,28.10
2019-01-23T17:42:49.497Z,30.03
2019-01-23T17:45:25.567Z,29.60
2019-01-23T17:47:57.998Z,29.60
2019-01-23T17:50:28.742Z,29.57
2019-01-23T17:52:59.492Z,27.63
2019-01-23T17:55:36.174Z,31.33
2019-01-23T17:58:09.015Z,31.60
2019-01-23T18:01:00.272Z,32.33
2019-01-23T18:03:32.699Z,32.57
2019-01-23T18:06:04.425Z,30.90
2019-01-23T18:08:35.215Z,33.67
2019-01-23T18:11:05.911Z,34.60
2019-01-23T18:13:36.782Z,33.37
2019-01-23T18:16:11.952Z,33.60
2019-01-23T18:18:42.726Z,33.43
2019-01-23T18:21:13.591Z,32.90
2019-01-23T18:23:44.464Z,34.57
2019-01-23T18:26:15.273Z,36.30
2019-01-23T18:28:48.530Z,35.97
2019-01-23T18:31:40.845Z,37.13
2019-01-23T18:34:51.170Z,35.63
2019-01-23T18:37:52.749Z,36.33
2019-01-23T18:41:17.631Z,37.43
2019-01-23T18:44:42.089Z,36.03
2019-01-23T18:47:49.569Z,34.57
2019-01-23T18:50:57.609Z,32.27
2019-01-23T18:53:30.043Z,34.77
2019-01-23T18:56:00.798Z,35.60
2019-01-23T18:58:31.810Z,35.40
2019-01-23T19:01:02.884Z,32.83
2019-01-23T19:03:33.941Z,32.13
2019-01-23T19:06:05.227Z,31.50
2019-01-23T19:08:37.538Z,30.67
2019-01-23T19:11:33.849Z,28.43
2019-01-23T19:14:24.580Z,28.87
2019-01-23T19:16:59.308Z,26.07
2019-01-23T19:19:30.026Z,18.30
2019-01-23T19:22:00.845Z,26.80
2019-01-23T19:24:31.846Z,28.47
2019-01-23T19:27:02.735Z,29.50
2019-01-23T19:29:33.449Z,29.30
2019-01-23T19:32:04.336Z,29.23
2019-01-23T19:34:35.203Z,30.43
2019-01-23T19:37:06.057Z,31.47
2019-01-23T19:39:36.780Z,30.07
2019-01-23T19:42:07.603Z,31.03
2019-01-23T19:44:38.514Z,29.10
2019-01-23T19:47:09.409Z,30.23
2019-01-23T19:49:40.314Z,28.87
2019-01-23T19:52:11.058Z,29.07
2019-01-23T19:54:41.845Z,27.50
2019-01-23T19:57:12.600Z,27.13
2019-01-23T19:59:44.937Z,29.23
2019-01-23T20:02:18.564Z,25.40
2019-01-23T20:04:49.400Z,28.93
2019-01-23T20:07:20.213Z,28.27
2019-01-23T20:09:51.010Z,23.47
2019-01-23T20:12:21.842Z,29.63
2019-01-23T20:14:52.664Z,28.90
2019-01-23T20:17:23.802Z,29.23
2019-01-23T20:19:54.796Z,28.23
2019-01-23T20:22:25.937Z,25.37
2019-01-23T20:24:57.302Z,25.57
2019-01-23T20:27:28.545Z,17.30
2019-01-23T20:29:59.622Z,28.20
2019-01-23T20:32:32.127Z,25.97
2019-01-23T20:35:03.162Z,25.03
2019-01-23T20:37:52.254Z,23.27
2019-01-23T20:40:19.510Z,25.37
2019-01-23T20:42:50.970Z,25.40
2019-01-23T20:45:21.808Z,26.33
2019-01-23T20:47:52.597Z,28.77
2019-01-23T20:50:28.609Z,27.40
2019-01-23T20:53:00.381Z,26.70
2019-01-23T20:55:31.138Z,25.80
2019-01-23T20:58:02.590Z,25.63
2019-01-23T21:00:34.022Z,26.93
2019-01-23T21:03:05.396Z,24.73
2019-01-23T21:05:37.480Z,27.30
2019-01-23T21:08:08.247Z,25.97
2019-01-23T21:10:39.078Z,26.20
2019-01-23T21:13:09.816Z,28.30
2019-01-23T21:15:40.508Z,29.17
2019-01-23T21:18:11.575Z,28.40
2019-01-23T21:20:46.182Z,25.97
2019-01-23T21:23:17.290Z,27.77
2019-01-23T21:25:48.097Z,28.50
2019-01-23T21:28:19.279Z,29.77
2019-01-23T21:30:51.635Z,28.70
2019-01-23T21:33:23.005Z,28.03
2019-01-23T21:35:54.861Z,28.03
2019-01-23T21:46:35.874Z,29.30
2019-01-23T21:49:06.695Z,29.87
2019-01-23T21:51:39.063Z,31.60
2019-01-23T21:54:10.050Z,30.00
2019-01-23T21:56:40.859Z,29.27
2019-01-23T21:59:11.701Z,30.10
2019-01-23T22:01:42.957Z,29.50
2019-01-23T22:04:14.057Z,28.93
2019-01-23T22:06:44.948Z,28.80
2019-01-23T22:09:15.900Z,30.17
2019-01-23T22:11:46.634Z,30.20
2019-01-23T22:14:18.060Z,28.47
2019-01-23T22:17:11.264Z,29.63
2019-01-23T22:20:10.722Z,26.27
2019-01-23T22:22:41.541Z,26.10
2019-01-23T22:25:13.756Z,28.60
2019-01-23T22:27:44.531Z,28.83
2019-01-23T22:30:18.373Z,27.67
2019-01-23T22:32:49.477Z,26.30
2019-01-23T22:35:20.237Z,29.07
2019-01-23T22:37:50.947Z,29.87
2019-01-23T22:40:21.767Z,30.03
2019-01-23T22:42:52.597Z,30.93
2019-01-23T22:45:23.354Z,29.77
2019-01-23T22:47:54.092Z,28.10
2019-01-23T22:50:28.889Z,27.50
2019-01-23T22:52:59.646Z,27.97
2019-01-23T22:55:30.653Z,26.60
2019-01-23T22:58:01.435Z,25.43
2019-01-23T23:01:05.857Z,28.57
2019-01-23T23:03:36.717Z,27.23
2019-01-23T23:06:07.499Z,26.43
2019-01-23T23:08:39.871Z,28.47
2019-01-23T23:11:10.629Z,25.37
2019-01-23T23:13:41.372Z,26.83
2019-01-23T23:16:12.356Z,26.77
2019-01-23T23:18:43.945Z,27.10
2019-01-23T23:21:16.536Z,27.57
2019-01-23T23:23:47.335Z,28.07
2019-01-23T23:26:18.151Z,28.90
2019-01-23T23:28:48.926Z,30.57
2019-01-23T23:31:20.773Z,32.00
2019-01-23T23:33:51.646Z,29.83
2019-01-23T23:37:41.716Z,28.73
2019-01-23T23:40:12.777Z,28.53
2019-01-23T23:42:43.710Z,27.40
2019-01-23T23:45:14.674Z,29.60
2019-01-23T23:47:45.497Z,28.57
2019-01-23T23:50:16.821Z,29.57
2019-01-23T23:52:47.541Z,30.40
2019-01-23T23:55:19.918Z,29.43
2019-01-23T23:57:50.655Z,29.60
